createdAt,value
2019-03-30T00:00:34.177Z,23.83
2019-03-30T00:03:02.830Z,19.60
2019-03-30T00:05:31.401Z,21.50
2019-03-30T00:08:00.297Z,24.37
2019-03-30T00:10:28.909Z,18.17
2019-03-30T00:12:57.619Z,22.77
2019-03-30T00:15:26.235Z,20.65
2019-03-30T00:17:54.851Z,21.68
2019-03-30T00:20:23.525Z,22.45
2019-03-30T00:22:52.187Z,25.85
2019-03-30T00:25:20.791Z,21.90
2019-03-30T00:27:49.349Z,25.32
2019-03-30T00:30:19.293Z,17.35
2019-03-30T00:32:48.170Z,19.65
2019-03-30T00:35:16.872Z,28.73
2019-03-30T00:37:45.548Z,22.90
2019-03-30T00:40:14.186Z,24.52
2019-03-30T00:42:42.786Z,26.00
2019-03-30T00:45:11.622Z,23.55
2019-03-30T00:47:40.242Z,23.05
2019-03-30T00:50:09.078Z,24.32
2019-03-30T00:52:37.714Z,25.10
2019-03-30T00:55:07.267Z,24.37
2019-03-30T00:57:35.946Z,19.90
2019-03-30T01:00:06.912Z,18.90
2019-03-30T01:02:35.574Z,21.35
2019-03-30T01:05:05.958Z,22.62
2019-03-30T01:07:34.627Z,23.83
2019-03-30T01:10:04.474Z,21.90
2019-03-30T01:12:33.103Z,24.25
2019-03-30T01:15:01.831Z,26.25
2019-03-30T01:17:30.437Z,30.70
2019-03-30T01:20:03.055Z,23.77
2019-03-30T01:22:29.385Z,32.70
2019-03-30T01:24:58.119Z,27.75
2019-03-30T01:27:26.697Z,24.98
2019-03-30T01:29:55.306Z,21.00
2019-03-30T01:32:23.919Z,25.57
2019-03-30T01:34:52.522Z,29.48
2019-03-30T01:37:21.225Z,24.23
2019-03-30T01:39:49.870Z,26.12
2019-03-30T01:42:18.433Z,26.95
2019-03-30T01:44:47.182Z,28.45
2019-03-30T01:47:15.758Z,27.85
2019-03-30T01:49:44.473Z,24.55
2019-03-30T01:52:13.156Z,27.00
2019-03-30T01:54:41.746Z,30.32
2019-03-30T01:57:10.462Z,26.15
2019-03-30T01:59:39.073Z,27.77
2019-03-30T02:02:07.677Z,24.37
2019-03-30T02:04:36.249Z,27.30
2019-03-30T02:07:04.891Z,26.35
2019-03-30T02:09:33.599Z,29.98
2019-03-30T02:12:02.398Z,26.65
2019-03-30T02:14:31.065Z,29.40
2019-03-30T02:16:59.792Z,29.15
2019-03-30T02:19:28.510Z,27.42
2019-03-30T02:21:57.149Z,32.78
2019-03-30T02:24:25.737Z,31.82
2019-03-30T02:26:54.355Z,25.80
2019-03-30T02:29:22.974Z,29.45
2019-03-30T02:31:51.539Z,23.92
2019-03-30T02:34:20.165Z,29.45
2019-03-30T02:36:48.806Z,35.33
2019-03-30T02:39:17.497Z,24.05
2019-03-30T02:41:46.173Z,23.87
2019-03-30T02:44:14.898Z,28.75
2019-03-30T02:46:43.547Z,31.15
2019-03-30T02:49:12.133Z,33.78
2019-03-30T02:51:40.746Z,24.65
2019-03-30T02:54:09.396Z,25.12
2019-03-30T02:56:38.117Z,26.02
2019-03-30T02:59:06.867Z,26.37
2019-03-30T03:01:35.461Z,28.55
2019-03-30T03:04:04.199Z,31.68
2019-03-30T03:06:32.923Z,26.73
2019-03-30T03:09:01.529Z,29.70
2019-03-30T03:11:30.147Z,26.35
2019-03-30T03:13:58.731Z,31.48
2019-03-30T03:16:27.692Z,28.05
2019-03-30T03:18:56.294Z,28.17
2019-03-30T03:21:24.965Z,30.25
2019-03-30T03:23:53.570Z,24.45
2019-03-30T03:26:22.141Z,29.25
2019-03-30T03:28:50.742Z,27.15
2019-03-30T03:31:19.482Z,33.25
2019-03-30T03:33:48.077Z,32.63
2019-03-30T03:36:16.679Z,31.02
2019-03-30T03:38:45.281Z,27.40
2019-03-30T03:41:13.884Z,28.65
2019-03-30T03:43:42.559Z,23.73
2019-03-30T03:46:11.316Z,33.80
2019-03-30T03:48:40.133Z,29.52
2019-03-30T03:51:24.874Z,39.83
2019-03-30T03:53:39.427Z,29.35
2019-03-30T03:56:09.429Z,25.70
2019-03-30T03:58:39.974Z,29.27
2019-03-30T04:01:08.848Z,35.10
2019-03-30T04:03:39.149Z,32.48
2019-03-30T04:06:08.339Z,37.40
2019-03-30T04:08:37.375Z,40.03
2019-03-30T04:11:07.116Z,40.52
2019-03-30T04:13:37.104Z,37.10
2019-03-30T04:16:05.694Z,45.98
2019-03-30T04:18:34.359Z,37.03
2019-03-30T04:21:02.973Z,44.60
2019-03-30T04:23:31.584Z,33.38
2019-03-30T04:26:00.264Z,35.00
2019-03-30T04:28:28.881Z,35.33
2019-03-30T04:30:57.579Z,42.80
2019-03-30T04:33:26.183Z,43.13
2019-03-30T04:35:54.779Z,37.75
2019-03-30T04:38:23.380Z,35.43
2019-03-30T04:40:52.023Z,54.93
2019-03-30T04:43:20.645Z,41.50
2019-03-30T04:45:49.250Z,49.70
2019-03-30T04:48:17.834Z,47.25
2019-03-30T04:50:46.502Z,36.88
2019-03-30T04:53:15.086Z,35.98
2019-03-30T04:55:43.681Z,40.38
2019-03-30T04:58:12.422Z,38.53
2019-03-30T05:00:41.009Z,40.10
2019-03-30T05:03:09.843Z,32.75
2019-03-30T05:05:38.466Z,44.18
2019-03-30T05:08:07.066Z,40.70
2019-03-30T05:10:35.732Z,38.35
2019-03-30T05:13:04.378Z,38.08
2019-03-30T05:15:33.110Z,32.73
2019-03-30T05:18:01.715Z,39.85
2019-03-30T05:20:30.305Z,33.08
2019-03-30T05:22:58.999Z,32.88
2019-03-30T05:25:27.609Z,37.83
2019-03-30T05:27:56.227Z,33.85
2019-03-30T05:30:24.794Z,37.88
2019-03-30T05:33:04.849Z,36.80
2019-03-30T05:35:23.826Z,36.58
2019-03-30T05:37:52.390Z,33.45
2019-03-30T05:40:21.042Z,36.17
2019-03-30T05:42:49.613Z,34.40
2019-03-30T05:45:18.375Z,32.63
2019-03-30T05:47:46.946Z,36.80
2019-03-30T05:50:15.616Z,31.35
2019-03-30T05:52:44.218Z,33.33
2019-03-30T05:55:13.011Z,30.68
2019-03-30T05:57:41.613Z,32.63
2019-03-30T06:00:12.817Z,30.88
2019-03-30T06:02:41.439Z,36.50
2019-03-30T06:05:10.216Z,34.13
2019-03-30T06:07:38.881Z,39.15
2019-03-30T06:10:07.881Z,35.80
2019-03-30T06:12:36.467Z,33.40
2019-03-30T06:15:07.576Z,34.10
2019-03-30T06:17:36.248Z,34.43
2019-03-30T06:20:06.585Z,33.75
2019-03-30T06:22:40.640Z,31.55
2019-03-30T06:25:05.830Z,28.50
2019-03-30T06:27:34.497Z,28.25
2019-03-30T06:30:17.299Z,27.55
2019-03-30T06:32:46.189Z,25.85
2019-03-30T06:35:14.925Z,33.90
2019-03-30T06:37:43.509Z,34.88
2019-03-30T06:40:12.374Z,27.15
2019-03-30T06:42:41.077Z,28.55
2019-03-30T06:45:09.947Z,27.13
2019-03-30T06:47:38.542Z,26.73
2019-03-30T06:50:08.049Z,35.48
2019-03-30T06:52:36.646Z,23.62
2019-03-30T06:55:06.631Z,44.15
2019-03-30T06:57:35.313Z,31.12
2019-03-30T07:00:04.935Z,24.75
2019-03-30T07:02:33.653Z,26.15
2019-03-30T07:05:02.606Z,25.05
2019-03-30T07:07:32.595Z,26.68
2019-03-30T07:10:04.070Z,29.18
2019-03-30T07:12:35.782Z,24.05
2019-03-30T07:15:06.146Z,23.18
2019-03-30T07:17:37.786Z,26.20
2019-03-30T07:20:09.635Z,21.12
2019-03-30T07:22:38.255Z,27.65
2019-03-30T07:25:06.889Z,22.42
2019-03-30T07:27:35.497Z,28.87
2019-03-30T07:30:06.740Z,21.55
2019-03-30T07:32:35.258Z,26.07
2019-03-30T07:35:04.710Z,24.10
2019-03-30T07:37:33.389Z,22.02
2019-03-30T07:40:01.949Z,22.77
2019-03-30T07:42:30.573Z,17.92
2019-03-30T07:44:59.143Z,25.60
2019-03-30T07:47:27.736Z,21.97
2019-03-30T07:49:56.307Z,27.42
2019-03-30T07:52:24.913Z,27.13
2019-03-30T07:54:53.591Z,26.57
2019-03-30T07:57:22.264Z,30.48
2019-03-30T07:59:50.823Z,31.12
2019-03-30T08:02:19.434Z,27.22
2019-03-30T08:04:48.009Z,17.50
2019-03-30T08:07:16.916Z,21.82
2019-03-30T08:09:45.576Z,20.72
2019-03-30T08:12:14.298Z,14.93
2019-03-30T08:14:45.155Z,17.05
2019-03-30T08:17:13.142Z,22.73
2019-03-30T08:19:41.793Z,17.85
2019-03-30T08:22:10.350Z,19.23
2019-03-30T08:24:39.036Z,20.95
2019-03-30T08:27:09.260Z,19.37
2019-03-30T08:29:37.856Z,21.50
2019-03-30T08:32:06.765Z,22.48
2019-03-30T08:34:35.419Z,22.73
2019-03-30T08:37:04.102Z,15.70
2019-03-30T08:39:32.696Z,29.32
2019-03-30T08:42:01.297Z,27.85
2019-03-30T08:44:29.899Z,23.75
2019-03-30T08:46:58.494Z,31.48
2019-03-30T08:49:27.129Z,17.48
2019-03-30T08:51:55.774Z,15.13
2019-03-30T08:54:24.633Z,22.65
2019-03-30T08:56:53.190Z,19.30
2019-03-30T08:59:21.863Z,20.20
2019-03-30T09:01:50.457Z,19.80
2019-03-30T09:04:19.141Z,17.95
2019-03-30T09:06:47.707Z,38.00
2019-03-30T09:09:16.313Z,23.67
2019-03-30T09:11:45.026Z,19.65
2019-03-30T09:14:13.650Z,20.40
2019-03-30T09:16:42.480Z,18.25
2019-03-30T09:19:11.068Z,17.57
2019-03-30T09:21:39.754Z,18.95
2019-03-30T09:24:10.130Z,16.85
2019-03-30T09:26:38.709Z,16.40
2019-03-30T09:29:07.305Z,16.07
2019-03-30T09:31:36.126Z,17.50
2019-03-30T09:34:05.750Z,19.07
2019-03-30T09:36:34.474Z,20.97
2019-03-30T09:39:04.178Z,20.50
2019-03-30T09:41:32.951Z,21.93
2019-03-30T09:44:01.573Z,17.77
2019-03-30T09:46:30.370Z,14.75
2019-03-30T09:48:59.139Z,18.12
2019-03-30T09:51:27.887Z,18.48
2019-03-30T09:53:56.589Z,24.95
2019-03-30T09:56:25.189Z,16.85
2019-03-30T09:58:53.845Z,15.65
2019-03-30T10:01:22.404Z,20.37
2019-03-30T10:03:51.229Z,16.50
2019-03-30T10:06:19.798Z,16.12
2019-03-30T10:08:48.401Z,18.37
2019-03-30T10:11:17.003Z,19.12
2019-03-30T10:13:45.741Z,26.90
2019-03-30T10:16:14.423Z,25.15
2019-03-30T10:18:42.991Z,14.23
2019-03-30T10:21:11.640Z,19.65
2019-03-30T10:23:40.209Z,33.90
2019-03-30T10:26:08.909Z,16.77
2019-03-30T10:28:37.540Z,16.80
2019-03-30T10:31:06.264Z,14.83
2019-03-30T10:33:34.766Z,15.35
2019-03-30T10:36:03.450Z,17.87
2019-03-30T10:38:32.092Z,26.62
2019-03-30T10:41:00.715Z,21.85
2019-03-30T10:43:29.306Z,19.55
2019-03-30T10:45:57.877Z,15.23
2019-03-30T10:48:26.482Z,15.78
2019-03-30T10:50:55.106Z,12.75
2019-03-30T10:53:23.720Z,15.95
2019-03-30T10:55:52.355Z,17.20
2019-03-30T10:58:20.960Z,17.73
2019-03-30T11:00:49.571Z,18.62
2019-03-30T11:03:18.205Z,16.85
2019-03-30T11:05:46.970Z,21.90
2019-03-30T11:08:15.629Z,18.35
2019-03-30T11:10:44.527Z,18.35
2019-03-30T11:13:13.289Z,19.90
2019-03-30T11:15:41.886Z,19.57
2019-03-30T11:18:10.551Z,19.80
2019-03-30T11:20:39.165Z,26.80
2019-03-30T11:23:07.767Z,20.82
2019-03-30T11:25:36.510Z,22.07
2019-03-30T11:28:05.228Z,18.23
2019-03-30T11:30:33.808Z,21.07
2019-03-30T11:33:02.448Z,16.87
2019-03-30T11:35:31.153Z,19.50
2019-03-30T11:37:59.831Z,16.10
2019-03-30T11:40:28.578Z,14.40
2019-03-30T11:42:57.243Z,20.35
2019-03-30T11:45:25.979Z,13.72
2019-03-30T11:47:54.558Z,19.70
2019-03-30T11:50:23.165Z,18.48
2019-03-30T11:52:51.790Z,19.45
2019-03-30T11:55:21.956Z,16.80
2019-03-30T11:57:50.714Z,18.75
2019-03-30T12:00:19.613Z,22.00
2019-03-30T12:02:48.252Z,17.82
2019-03-30T12:05:16.913Z,17.32
2019-03-30T12:07:45.661Z,20.23
2019-03-30T12:10:14.608Z,18.67
2019-03-30T12:12:43.217Z,14.68
2019-03-30T12:15:12.998Z,18.17
2019-03-30T12:17:41.632Z,25.08
2019-03-30T12:20:10.589Z,20.80
2019-03-30T12:22:39.360Z,22.15
2019-03-30T12:25:08.391Z,26.27
2019-03-30T12:27:37.007Z,18.80
2019-03-30T12:30:10.557Z,31.25
2019-03-30T12:32:39.273Z,20.55
2019-03-30T12:35:08.114Z,25.00
2019-03-30T12:37:37.317Z,20.75
2019-03-30T12:40:07.102Z,24.80
2019-03-30T12:42:35.779Z,22.95
2019-03-30T12:45:06.703Z,18.52
2019-03-30T12:47:35.314Z,21.90
2019-03-30T12:50:05.804Z,23.73
2019-03-30T12:52:34.373Z,39.00
2019-03-30T12:55:03.692Z,28.83
2019-03-30T12:57:32.351Z,17.27
2019-03-30T13:00:01.027Z,23.22
2019-03-30T13:02:29.966Z,16.80
2019-03-30T13:04:58.542Z,17.87
2019-03-30T13:07:27.170Z,18.75
2019-03-30T13:09:55.825Z,24.50
2019-03-30T13:12:24.477Z,19.65
2019-03-30T13:14:53.156Z,20.68
2019-03-30T13:17:21.798Z,21.35
2019-03-30T13:19:50.456Z,19.65
2019-03-30T13:22:19.065Z,18.65
2019-03-30T13:24:47.790Z,13.58
2019-03-30T13:27:16.478Z,16.87
2019-03-30T13:29:45.126Z,16.62
2019-03-30T13:32:13.944Z,16.45
2019-03-30T13:34:42.759Z,33.15
2019-03-30T13:37:19.160Z,18.15
2019-03-30T13:39:47.802Z,20.82
2019-03-30T13:42:16.425Z,15.15
2019-03-30T13:44:45.254Z,22.25
2019-03-30T13:47:13.893Z,18.95
2019-03-30T13:49:42.567Z,18.00
2019-03-30T13:52:11.173Z,22.50
2019-03-30T13:54:39.802Z,16.20
2019-03-30T13:57:08.460Z,19.55
2019-03-30T13:59:37.005Z,35.45
2019-03-30T14:02:05.741Z,21.70
2019-03-30T14:04:34.346Z,22.60
2019-03-30T14:07:03.028Z,23.35
2019-03-30T14:09:31.650Z,27.75
2019-03-30T14:12:00.282Z,26.95
2019-03-30T14:14:28.958Z,22.90
2019-03-30T14:16:57.582Z,20.57
2019-03-30T14:19:26.298Z,19.42
2019-03-30T14:21:55.081Z,19.67
2019-03-30T14:24:23.720Z,19.60
2019-03-30T14:26:52.528Z,31.90
2019-03-30T14:29:21.208Z,21.35
2019-03-30T14:31:49.815Z,22.20
2019-03-30T14:34:18.381Z,21.00
2019-03-30T14:36:47.002Z,63.42
2019-03-30T14:39:15.696Z,31.15
2019-03-30T14:41:44.289Z,19.15
2019-03-30T14:44:12.934Z,21.60
2019-03-30T14:46:41.656Z,20.02
2019-03-30T14:49:10.340Z,24.10
2019-03-30T14:51:38.976Z,24.43
2019-03-30T14:54:07.580Z,32.08
2019-03-30T14:56:45.595Z,27.10
2019-03-30T14:59:10.356Z,20.00
2019-03-30T15:01:36.798Z,19.23
2019-03-30T15:04:05.601Z,21.82
2019-03-30T15:06:34.188Z,22.60
2019-03-30T15:09:04.503Z,28.92
2019-03-30T15:11:33.087Z,34.58
2019-03-30T15:14:01.681Z,30.92
2019-03-30T15:16:30.362Z,21.35
2019-03-30T15:18:58.957Z,25.70
2019-03-30T15:21:27.549Z,24.98
2019-03-30T15:23:56.234Z,20.60
2019-03-30T15:26:24.986Z,21.93
2019-03-30T15:28:53.567Z,22.90
2019-03-30T15:31:22.221Z,23.32
2019-03-30T15:33:53.350Z,18.05
2019-03-30T15:36:21.249Z,29.18
2019-03-30T15:38:49.990Z,18.90
2019-03-30T15:41:18.643Z,19.92
2019-03-30T15:43:47.294Z,18.25
2019-03-30T15:46:15.927Z,26.02
2019-03-30T15:48:44.603Z,16.70
2019-03-30T15:51:13.243Z,21.10
2019-03-30T15:53:41.859Z,26.25
2019-03-30T15:56:10.569Z,32.90
2019-03-30T15:58:39.253Z,31.75
2019-03-30T16:01:07.881Z,17.00
2019-03-30T16:03:36.522Z,31.62
2019-03-30T16:06:05.216Z,32.28
2019-03-30T16:08:33.805Z,31.12
2019-03-30T16:11:02.464Z,27.30
2019-03-30T16:13:31.290Z,20.92
2019-03-30T16:15:59.888Z,23.15
2019-03-30T16:18:28.586Z,28.35
2019-03-30T16:20:57.186Z,28.80
2019-03-30T16:23:25.946Z,22.58
2019-03-30T16:25:54.704Z,22.17
2019-03-30T16:28:23.378Z,21.30
2019-03-30T16:30:52.083Z,16.52
2019-03-30T16:33:20.654Z,28.95
2019-03-30T16:35:49.331Z,21.42
2019-03-30T16:38:18.004Z,15.00
2019-03-30T16:40:46.711Z,21.93
2019-03-30T16:43:15.317Z,25.57
2019-03-30T16:45:43.912Z,26.30
2019-03-30T16:48:14.753Z,20.00
2019-03-30T16:50:42.935Z,24.18
2019-03-30T16:53:11.527Z,27.50
2019-03-30T16:55:40.274Z,19.48
2019-03-30T16:58:08.868Z,23.20
2019-03-30T17:00:37.526Z,27.90
2019-03-30T17:03:06.316Z,28.02
2019-03-30T17:05:35.019Z,24.95
2019-03-30T17:08:03.717Z,28.90
2019-03-30T17:10:32.526Z,42.33
2019-03-30T17:13:01.136Z,28.12
2019-03-30T17:15:29.779Z,26.42
2019-03-30T17:17:58.396Z,28.40
2019-03-30T17:20:26.992Z,24.70
2019-03-30T17:22:58.660Z,28.27
2019-03-30T17:25:26.033Z,31.82
2019-03-30T17:27:58.423Z,27.65
2019-03-30T17:30:25.033Z,33.40
2019-03-30T17:32:53.822Z,25.50
2019-03-30T17:35:22.579Z,40.50
2019-03-30T17:37:51.195Z,31.37
2019-03-30T17:40:19.814Z,24.47
2019-03-30T17:42:48.473Z,25.65
2019-03-30T17:45:17.214Z,25.32
2019-03-30T17:47:45.882Z,26.90
2019-03-30T17:50:14.922Z,23.32
2019-03-30T17:52:43.593Z,28.50
2019-03-30T17:55:13.718Z,29.80
2019-03-30T17:57:42.493Z,36.88
2019-03-30T18:00:13.950Z,36.63
2019-03-30T18:02:42.526Z,30.52
2019-03-30T18:05:11.359Z,33.85
2019-03-30T18:07:40.076Z,44.88
2019-03-30T18:10:10.009Z,39.33
2019-03-30T18:12:38.680Z,32.83
2019-03-30T18:15:08.248Z,47.83
2019-03-30T18:17:36.857Z,55.17
2019-03-30T18:20:06.670Z,39.65
2019-03-30T18:22:35.438Z,30.90
2019-03-30T18:25:05.694Z,46.18
2019-03-30T18:27:34.342Z,35.95
2019-03-30T18:30:03.079Z,39.58
2019-03-30T18:32:32.174Z,36.50
2019-03-30T18:35:00.948Z,41.58
2019-03-30T18:37:30.093Z,38.65
2019-03-30T18:39:59.235Z,41.13
2019-03-30T18:42:28.798Z,32.60
2019-03-30T18:44:58.117Z,53.13
2019-03-30T18:47:26.751Z,48.13
2019-03-30T18:49:55.354Z,56.45
2019-03-30T18:52:24.790Z,44.67
2019-03-30T18:54:54.149Z,35.15
2019-03-30T18:57:22.894Z,44.50
2019-03-30T18:59:51.495Z,42.83
2019-03-30T19:02:20.172Z,36.42
2019-03-30T19:04:48.677Z,40.60
2019-03-30T19:07:17.279Z,43.48
2019-03-30T19:09:45.920Z,43.52
2019-03-30T19:12:14.544Z,50.17
2019-03-30T19:14:43.130Z,38.48
2019-03-30T19:17:11.779Z,52.13
2019-03-30T19:19:40.417Z,45.85
2019-03-30T19:22:09.060Z,40.48
2019-03-30T19:24:37.743Z,44.40
2019-03-30T19:27:06.429Z,43.42
2019-03-30T19:29:35.011Z,41.65
2019-03-30T19:32:03.634Z,44.90
2019-03-30T19:34:32.218Z,40.70
2019-03-30T19:37:00.818Z,52.78
2019-03-30T19:39:29.525Z,45.05
2019-03-30T19:41:58.146Z,51.83
2019-03-30T19:44:26.730Z,48.05
2019-03-30T19:46:55.410Z,58.50
2019-03-30T19:49:23.964Z,58.28
2019-03-30T19:51:52.566Z,58.60
2019-03-30T19:54:21.219Z,66.60
2019-03-30T19:56:49.845Z,63.80
2019-03-30T19:59:18.440Z,59.33
2019-03-30T20:01:47.042Z,57.00
2019-03-30T20:04:15.602Z,56.70
2019-03-30T20:06:44.265Z,64.72
2019-03-30T20:09:12.936Z,62.90
2019-03-30T20:11:41.513Z,56.53
2019-03-30T20:14:10.131Z,60.65
2019-03-30T20:16:42.098Z,65.87
2019-03-30T20:19:12.473Z,63.08
2019-03-30T20:21:39.231Z,65.30
2019-03-30T20:24:07.946Z,67.42
2019-03-30T20:26:36.550Z,64.75
2019-03-30T20:29:05.408Z,67.15
2019-03-30T20:31:33.999Z,67.32
2019-03-30T20:34:02.665Z,69.10
2019-03-30T20:36:31.303Z,74.62
2019-03-30T20:39:00.021Z,73.52
2019-03-30T20:41:28.613Z,74.87
2019-03-30T20:43:57.519Z,85.85
2019-03-30T20:46:26.220Z,70.00
2019-03-30T20:48:54.815Z,73.05
2019-03-30T20:51:23.418Z,71.57
2019-03-30T20:53:52.077Z,74.65
2019-03-30T20:56:20.645Z,80.53
2019-03-30T20:58:49.330Z,80.25
2019-03-30T21:01:18.040Z,72.42
2019-03-30T21:03:46.701Z,86.85
2019-03-30T21:06:15.360Z,78.15
2019-03-30T21:08:43.961Z,82.02
2019-03-30T21:11:12.569Z,76.92
2019-03-30T21:13:41.160Z,84.00
2019-03-30T21:16:09.858Z,79.55
2019-03-30T21:18:38.447Z,75.90
2019-03-30T21:21:09.128Z,77.08
2019-03-30T21:23:37.445Z,79.22
2019-03-30T21:26:06.157Z,74.32
2019-03-30T21:28:34.777Z,87.80
2019-03-30T21:31:03.394Z,80.70
2019-03-30T21:33:31.918Z,82.80
2019-03-30T21:36:00.582Z,69.42
2019-03-30T21:38:29.209Z,72.05
2019-03-30T21:40:57.787Z,68.90
2019-03-30T21:43:26.379Z,68.28
2019-03-30T21:45:54.945Z,66.87
2019-03-30T21:48:23.522Z,65.20
2019-03-30T21:50:52.120Z,70.75
2019-03-30T21:53:20.722Z,72.03
2019-03-30T21:55:49.345Z,68.52
2019-03-30T21:58:17.961Z,67.95
2019-03-30T22:00:46.683Z,71.57
2019-03-30T22:03:15.334Z,72.90
2019-03-30T22:05:43.894Z,72.80
2019-03-30T22:08:12.647Z,63.60
2019-03-30T22:10:41.268Z,62.65
2019-03-30T22:13:09.906Z,62.25
2019-03-30T22:15:38.631Z,63.48
2019-03-30T22:18:07.198Z,56.55
2019-03-30T22:20:35.876Z,63.08
2019-03-30T22:23:04.523Z,56.23
2019-03-30T22:25:33.121Z,58.45
2019-03-30T22:28:01.724Z,53.95
2019-03-30T22:30:30.413Z,65.60
2019-03-30T22:32:59.130Z,61.23
2019-03-30T22:35:27.697Z,64.65
2019-03-30T22:37:56.331Z,58.52
2019-03-30T22:40:24.940Z,59.83
2019-03-30T22:42:53.574Z,63.25
2019-03-30T22:45:22.221Z,56.48
2019-03-30T22:47:50.850Z,55.10
2019-03-30T22:50:19.590Z,54.18
2019-03-30T22:52:48.310Z,55.38
2019-03-30T22:55:16.971Z,55.70
2019-03-30T22:57:45.610Z,55.38
2019-03-30T23:00:38.611Z,59.23
2019-03-30T23:02:58.739Z,56.70
2019-03-30T23:05:27.378Z,58.58
2019-03-30T23:07:55.975Z,56.08
2019-03-30T23:10:24.535Z,59.30
2019-03-30T23:12:53.180Z,56.00
2019-03-30T23:15:21.785Z,54.98
2019-03-30T23:17:50.395Z,62.13
2019-03-30T23:20:18.993Z,60.65
2019-03-30T23:22:47.553Z,54.42
2019-03-30T23:25:16.259Z,54.27
2019-03-30T23:27:44.918Z,56.42
2019-03-30T23:30:15.117Z,62.80
2019-03-30T23:32:43.730Z,62.43
2019-03-30T23:35:14.174Z,61.42
2019-03-30T23:37:42.770Z,60.92
2019-03-30T23:40:11.551Z,65.60
2019-03-30T23:42:40.188Z,70.80
2019-03-30T23:45:10.325Z,67.27
2019-03-30T23:47:39.027Z,61.92
2019-03-30T23:50:07.964Z,65.40
2019-03-30T23:52:36.645Z,71.40
2019-03-30T23:55:06.573Z,70.40
2019-03-30T23:57:35.319Z,67.08
